Time;durP1;ratioP1;P1;durP2;ratioP2;P2;SDS_P1;SDS_P2;PMS_P1;PMS_P2;Temp;Humidity;BMP_temperature;BMP_pressure;BME280_temperature;BME280_humidity;BME280_pressure;Samples;Min_cycle;Max_cycle;Signal;HPM_P1;HPM_P2
2022/12/02 00:01:11;;;;;;;;;;;;;;;;;;5038504;28;19917;-62
2022/12/02 00:03:37;;;;;;;;;;;;;;;;;;5046405;28;19966;-62
2022/12/02 00:06:03;;;;;;;;;;;;;;;;;;5054709;28;20289;-62
2022/12/02 00:08:28;;;;;;;;;;;;;;;;;;5047196;28;19999;-61
2022/12/02 00:10:54;;;;;;;;;;;;;;;;;;5044479;28;19924;-63
2022/12/02 00:13:21;;;;;;;;;;;;;;;;;;5061740;28;19928;-61
2022/12/02 00:15:47;;;;;;;;;;;;;;;;;;5057916;28;20444;-62
2022/12/02 00:18:13;;;;;;;;;;;;;;;;;;5048805;28;19913;-63
2022/12/02 00:20:38;;;;;;;;;;;;;;;;;;5045829;28;20103;-63
2022/12/02 00:23:04;;;;;;;;;;;;;;;;;;5048205;28;19920;-63
2022/12/02 00:25:30;;;;;;;;;;;;;;;;;;5043625;28;19976;-63
2022/12/02 00:27:56;;;;;;;;;;;;;;;;;;5050312;28;19920;-62
2022/12/02 00:30:22;;;;;;;;;;;;;;;;;;5045593;28;20596;-61
2022/12/02 00:32:48;;;;;;;;;;;;;;;;;;5050892;28;19939;-62
2022/12/02 00:35:14;;;;;;;;;;;;;;;;;;5043640;28;19919;-62
2022/12/02 00:37:39;;;;;;;;;;;;;;;;;;5047145;28;19995;-62
2022/12/02 00:40:05;;;;;;;;;;;;;;;;;;5055238;28;19912;-61
2022/12/02 00:42:31;;;;;;;;;;;;;;;;;;5049127;28;19939;-62
2022/12/02 00:47:42;;;;;;;;;;;;;;;;;;5043028;28;20026;-62
2022/12/02 00:50:08;;;;;;;;;;;;;;;;;;5049129;28;19972;-61
2022/12/02 00:52:33;;;;;;;;;;;;;;;;;;5048780;28;19963;-62
2022/12/02 00:54:59;;;;;;;;;;;;;;;;;;5047921;28;19956;-63
2022/12/02 00:57:25;;;;;;;;;;;;;;;;;;5047839;28;19913;-61
2022/12/02 00:59:51;;;;;;;;;;;;;;;;;;5047011;28;19917;-59
2022/12/02 01:02:17;;;;;;;;;;;;;;;;;;5051020;28;19932;-61
2022/12/02 01:04:43;;;;;;;;;;;;;;;;;;5050908;28;19917;-62
2022/12/02 01:07:09;;;;;;;;;;;;;;;;;;5046709;28;19912;-62
2022/12/02 01:09:35;;;;;;;;;;;;;;;;;;5054802;28;19979;-62
2022/12/02 01:12:01;;;;;;;;;;;;;;;;;;5053650;28;20386;-62
2022/12/02 01:14:26;;;;;;;;;;;;;;;;;;5048725;28;19971;-61
2022/12/02 01:16:52;;;;;;;;;;;;;;;;;;5044200;28;19963;-62
2022/12/02 01:19:18;;;;;;;;;;;;;;;;;;5046128;28;19939;-62
2022/12/02 01:21:44;;;;;;;;;;;;;;;;;;5050468;28;20448;-62
2022/12/02 01:24:10;;;;;;;;;;;;;;;;;;5053519;28;19943;-62
2022/12/02 01:26:36;;;;;;;;;;;;;;;;;;5046491;28;19912;-62
2022/12/02 01:29:02;;;;;;;;;;;;;;;;;;5047483;28;20386;-62
2022/12/02 01:31:28;;;;;;;;;;;;;;;;;;5053372;28;20003;-61
2022/12/02 01:33:54;;;;;;;;;;;;;;;;;;5047237;28;20394;-61
2022/12/02 01:36:20;;;;;;;;;;;;;;;;;;5048570;28;19925;-61
2022/12/02 01:38:46;;;;;;;;;;;;;;;;;;5051893;28;20375;-59
2022/12/02 01:41:12;;;;;;;;;;;;;;;;;;5045928;28;19923;-58
2022/12/02 01:43:37;;;;;;;;;;;;;;;;;;5053193;28;19920;-62
2022/12/02 01:46:03;;;;;;;;;;;;;;;;;;5051391;28;19924;-61
2022/12/02 01:48:29;;;;;;;;;;;;;;;;;;5046872;28;20298;-62
2022/12/02 01:50:55;;;;;;;;;;;;;;;;;;5049118;28;19920;-62
2022/12/02 01:53:21;;;;;;;;;;;;;;;;;;5054764;28;19923;-61
2022/12/02 01:55:47;;;;;;;;;;;;;;;;;;5055886;28;19917;-62
2022/12/02 01:58:13;;;;;;;;;;;;;;;;;;5058628;28;20282;-62
2022/12/02 02:00:38;;;;;;;;;;;;;;;;;;5048267;28;19916;-62
2022/12/02 02:03:04;;;;;;;;;;;;;;;;;;5049253;28;20661;-62
2022/12/02 02:05:30;;;;;;;;;;;;;;;;;;5052316;28;19924;-62
2022/12/02 02:07:56;;;;;;;;;;;;;;;;;;5055133;28;19967;-61
2022/12/02 02:10:22;;;;;;;;;;;;;;;;;;5060797;28;19908;-62
2022/12/02 02:12:48;;;;;;;;;;;;;;;;;;5055329;28;20336;-61
2022/12/02 02:15:14;;;;;;;;;;;;;;;;;;5057043;28;19917;-62
2022/12/02 02:17:39;;;;;;;;;;;;;;;;;;5047978;28;19920;-61
2022/12/02 02:20:05;;;;;;;;;;;;;;;;;;5050502;28;19912;-59
2022/12/02 02:22:31;;;;;;;;;;;;;;;;;;5055158;28;20011;-62
2022/12/02 02:24:57;;;;;;;;;;;;;;;;;;5050533;28;19917;-62
2022/12/02 02:27:23;;;;;;;;;;;;;;;;;;5057297;28;19913;-60
2022/12/02 02:29:49;;;;;;;;;;;;;;;;;;5052097;28;20440;-62
2022/12/02 02:32:15;;;;;;;;;;;;;;;;;;5047605;28;19909;-62
2022/12/02 02:34:40;;;;;;;;;;;;;;;;;;5057251;28;20387;-62
2022/12/02 02:37:06;;;;;;;;;;;;;;;;;;5052909;28;19959;-63
2022/12/02 02:39:32;;;;;;;;;;;;;;;;;;5050888;28;20000;-62
2022/12/02 02:41:58;;;;;;;;;;;;;;;;;;5049174;28;19912;-62
2022/12/02 02:44:24;;;;;;;;;;;;;;;;;;5051275;28;19917;-62
2022/12/02 02:46:50;;;;;;;;;;;;;;;;;;5054487;28;20366;-61
2022/12/02 02:49:16;;;;;;;;;;;;;;;;;;5054349;28;19908;-62
2022/12/02 02:51:41;;;;;;;;;;;;;;;;;;5047626;28;20016;-62
2022/12/02 02:54:07;;;;;;;;;;;;;;;;;;5051522;28;19920;-61
2022/12/02 02:56:33;;;;;;;;;;;;;;;;;;5055083;28;19999;-61
2022/12/02 02:58:59;;;;;;;;;;;;;;;;;;5056455;28;19920;-61
2022/12/02 03:01:25;;;;;;;;;;;;;;;;;;5051048;28;19927;-60
2022/12/02 03:03:51;;;;;;;;;;;;;;;;;;5051947;28;19916;-61
2022/12/02 03:06:17;;;;;;;;;;;;;;;;;;5045793;28;19963;-61
2022/12/02 03:08:42;;;;;;;;;;;;;;;;;;5050266;28;19926;-57
2022/12/02 03:11:08;;;;;;;;;;;;;;;;;;5052094;28;20107;-62
2022/12/02 03:13:34;;;;;;;;;;;;;;;;;;5045791;28;19913;-62
2022/12/02 03:16:00;;;;;;;;;;;;;;;;;;5044735;28;20011;-62
2022/12/02 03:18:26;;;;;;;;;;;;;;;;;;5051092;28;19912;-62
2022/12/02 03:20:52;;;;;;;;;;;;;;;;;;5052563;28;19912;-62
2022/12/02 03:23:18;;;;;;;;;;;;;;;;;;5051222;28;19919;-62
2022/12/02 03:25:44;;;;;;;;;;;;;;;;;;5052185;28;19923;-62
2022/12/02 03:28:10;;;;;;;;;;;;;;;;;;5054637;28;19920;-58
2022/12/02 03:30:36;;;;;;;;;;;;;;;;;;5052066;28;19920;-63
2022/12/02 03:33:02;;;;;;;;;;;;;;;;;;5041268;28;19913;-61
2022/12/02 03:35:28;;;;;;;;;;;;;;;;;;5045211;28;19917;-61
2022/12/02 03:37:54;;;;;;;;;;;;;;;;;;5049625;28;19913;-62
2022/12/02 03:40:20;;;;;;;;;;;;;;;;;;5054726;28;19932;-63
2022/12/02 03:42:46;;;;;;;;;;;;;;;;;;5047283;28;19928;-61
2022/12/02 03:45:11;;;;;;;;;;;;;;;;;;5049982;28;19927;-60
2022/12/02 03:47:37;;;;;;;;;;;;;;;;;;5049906;28;19943;-61
2022/12/02 03:50:03;;;;;;;;;;;;;;;;;;5051129;28;19995;-61
2022/12/02 03:52:29;;;;;;;;;;;;;;;;;;5056800;22;20271;-59
2022/12/02 03:54:55;;;;;;;;;;;;;;;;;;5049056;28;19919;-61
2022/12/02 03:57:21;;;;;;;;;;;;;;;;;;5048839;28;19913;-60
2022/12/02 03:59:47;;;;;;;;;;;;;;;;;;5050616;28;19917;-61
2022/12/02 04:02:12;;;;;;;;;;;;;;;;;;5044768;28;19913;-59
2022/12/02 04:04:38;;;;;;;;;;;;;;;;;;5042121;28;19927;-56
2022/12/02 04:07:04;;;;;;;;;;;;;;;;;;5047600;28;19913;-59
2022/12/02 04:09:30;;;;;;;;;;;;;;;;;;5042123;28;19912;-55
2022/12/02 04:11:56;;;;;;;;;;;;;;;;;;5044487;28;19913;-60
2022/12/02 04:14:22;;;;;;;;;;;;;;;;;;5045998;28;19921;-59
2022/12/02 04:16:48;;;;;;;;;;;;;;;;;;5046445;28;20603;-58
2022/12/02 04:19:14;;;;;;;;;;;;;;;;;;5040055;28;19924;-60
2022/12/02 04:21:40;;;;;;;;;;;;;;;;;;5037478;28;19971;-57
2022/12/02 04:24:05;;;;;;;;;;;;;;;;;;5046247;28;19916;-60
2022/12/02 04:26:31;;;;;;;;;;;;;;;;;;5040634;28;19928;-58
2022/12/02 04:28:57;;;;;;;;;;;;;;;;;;5045266;28;20302;-57
2022/12/02 04:31:23;;;;;;;;;;;;;;;;;;5043392;28;19909;-58
2022/12/02 04:33:49;;;;;;;;;;;;;;;;;;5040267;28;19913;-60
2022/12/02 04:36:15;;;;;;;;;;;;;;;;;;5042835;28;20384;-61
2022/12/02 04:38:41;;;;;;;;;;;;;;;;;;5039420;28;19916;-60
2022/12/02 04:41:07;;;;;;;;;;;;;;;;;;5026549;28;20299;-60
2022/12/02 04:43:32;;;;;;;;;;;;;;;;;;5039271;28;19925;-62
2022/12/02 04:45:58;;;;;;;;;;;;;;;;;;5040750;28;19924;-65
2022/12/02 04:48:24;;;;;;;;;;;;;;;;;;5042601;28;20290;-59
2022/12/02 04:50:50;;;;;;;;;;;;;;;;;;5043721;28;19956;-58
2022/12/02 04:53:16;;;;;;;;;;;;;;;;;;5039561;28;19917;-58
2022/12/02 04:55:45;;;;;;;;;;;;;;;;;;5044764;28;19916;-58
2022/12/02 04:58:11;;;;;;;;;;;;;;;;;;5045794;28;20346;-60
2022/12/02 05:00:37;;;;;;;;;;;;;;;;;;5038096;28;19921;-59
2022/12/02 05:03:02;;;;;;;;;;;;;;;;;;5042302;28;20539;-59
2022/12/02 05:05:28;;;;;;;;;;;;;;;;;;5043798;28;19962;-60
2022/12/02 05:07:54;;;;;;;;;;;;;;;;;;5041791;28;19941;-61
2022/12/02 05:10:20;;;;;;;;;;;;;;;;;;5043339;28;20309;-58
2022/12/02 05:12:46;;;;;;;;;;;;;;;;;;5044092;28;19919;-61
2022/12/02 05:15:13;;;;;;;;;;;;;;;;;;5042630;28;20018;-61
2022/12/02 05:17:38;;;;;;;;;;;7.70;99.90;;;;;;5042863;28;19966;-58
2022/12/02 05:20:04;;;;;;;;;;;4.90;99.90;;;;;;5041378;28;20666;-60
2022/12/02 05:22:29;;;;;;;;;;;4.80;99.90;;;;;;5046297;28;19916;-60
2022/12/02 05:24:55;;;;;;;;;;;4.80;99.90;;;;;;5042761;28;19921;-59
2022/12/02 05:27:20;;;;;;;;;;;4.70;99.90;;;;;;5046266;28;19916;-61
2022/12/02 05:29:45;;;;;;;;;;;4.70;99.90;;;;;;5048383;28;19920;-59
2022/12/02 05:32:11;;;;;;;;;;;4.70;99.90;;;;;;5049361;28;20461;-59
2022/12/02 05:34:36;;;;;;;;;;;4.70;99.90;;;;;;5046263;28;19936;-55
2022/12/02 05:37:02;;;;;;;;;;;4.70;99.90;;;;;;5045338;28;19916;-59
2022/12/02 05:39:28;;;;;;;;;;;4.80;99.90;;;;;;5048059;28;19913;-58
2022/12/02 05:41:54;;;;;;;;;;;4.70;99.90;;;;;;5044906;28;20367;-59
2022/12/02 05:44:23;;;;;;;;;;;4.80;99.90;;;;;;5047440;28;20783;-60
2022/12/02 05:46:49;;;;;;;;;;;4.80;99.90;;;;;;5050726;28;19913;-61
2022/12/02 05:49:17;;;;;;;;;;;4.80;99.90;;;;;;5050555;28;19958;-59
2022/12/02 05:51:42;;;;;;;;;;;4.70;99.90;;;;;;5048134;28;19935;-55
2022/12/02 05:54:10;;;;;;;;;;;4.70;99.90;;;;;;5049655;28;19921;-60
2022/12/02 05:56:36;;;;;;;;;;;4.60;99.90;;;;;;5044719;28;19968;-60
2022/12/02 05:59:04;;;;;;;;;;;4.70;99.90;;;;;;5046256;28;19971;-58
2022/12/02 06:01:37;;;;;;;;;;;4.70;99.90;;;;;;5043750;28;20280;-60
2022/12/02 06:04:04;;;;;;;;;;;4.60;99.90;;;;;;5044287;28;19959;-60
2022/12/02 06:06:32;;;;;;;;;;;4.60;99.90;;;;;;5049073;28;19913;-59
2022/12/02 06:08:58;;;;;;;;;;;4.60;99.90;;;;;;5040145;28;19963;-59
2022/12/02 06:11:27;;;;;;;;;;;4.60;99.90;;;;;;5042477;28;19912;-56
2022/12/02 06:13:55;;;;;;;;;;;4.60;99.90;;;;;;5042764;28;19913;-59
2022/12/02 06:16:23;;;;;;;;;;;4.60;99.90;;;;;;5041343;28;19917;-56
2022/12/02 06:18:48;;;;;;;;;;;4.70;99.90;;;;;;5043540;28;20443;-58
2022/12/02 06:21:15;;;;;;;;;;;4.70;99.90;;;;;;5043380;28;20031;-59
2022/12/02 06:23:43;;;;;;;;;;;4.70;99.90;;;;;;5044455;28;19917;-58
2022/12/02 06:26:11;;;;;;;;;;;4.70;99.90;;;;;;5043409;28;20620;-60
2022/12/02 06:28:38;;;;;;;;;;;4.70;99.90;;;;;;5046973;28;19916;-57
2022/12/02 06:31:15;;;;;;;;;;;4.70;99.90;;;;;;5044317;28;19916;-53
2022/12/02 06:33:41;;;;;;;;;;;4.80;99.90;;;;;;5042986;28;19928;-60
2022/12/02 06:36:11;;;;;;;;;;;4.80;99.90;;;;;;5040435;28;19913;-58
2022/12/02 06:38:40;;;;;;;;;;;4.80;99.90;;;;;;5045755;28;19913;-60
2022/12/02 06:41:13;;;;;;;;;;;4.90;99.90;;;;;;5038769;28;19932;-56
2022/12/02 06:43:39;;;;;;;;;;;4.90;99.90;;;;;;5040383;28;19964;-59
2022/12/02 06:46:09;;;;;;;;;;;4.90;99.90;;;;;;5045369;28;20561;-57
2022/12/02 06:48:39;;;;;;;;;;;4.90;99.90;;;;;;5048113;28;19960;-53
2022/12/02 06:51:20;;;;;;;;;;;4.80;99.90;;;;;;5043862;28;20505;-58
2022/12/02 06:53:45;;;;;;;;;;;;;;;;;;5042467;28;20039;-57
2022/12/02 06:56:26;;;;;;;;;;;4.80;99.90;;;;;;5046528;28;20007;-55
2022/12/02 06:58:51;;;;;;;;;;;4.80;99.90;;;;;;5043904;28;19959;-56
2022/12/02 07:01:25;;;;;;;;;;;4.70;99.90;;;;;;5044665;28;19913;-56
2022/12/02 07:04:08;;;;;;;;;;;4.70;99.90;;;;;;5050143;28;19913;-60
2022/12/02 07:06:38;;;;;;;;;;;4.70;99.90;;;;;;5041802;28;20341;-54
2022/12/02 07:09:05;;;;;;;;;;;4.80;99.90;;;;;;5043008;28;19917;-54
2022/12/02 07:11:49;;;;;;;;;;;4.80;99.90;;;;;;5040343;28;20400;-54
2022/12/02 07:14:34;;;;;;;;;;;4.70;99.90;;;;;;5044632;28;20444;-54
2022/12/02 07:17:20;;;;;;;;;;;4.80;99.90;;;;;;5038608;28;20333;-52
2022/12/02 07:19:49;;;;;;;;;;;4.80;99.90;;;;;;5029939;28;19913;-53
2022/12/02 07:22:16;;;;;;;;;;;4.80;99.90;;;;;;5039731;28;19913;-52
2022/12/02 07:24:44;;;;;;;;;;;4.80;99.90;;;;;;5040039;28;19943;-53
2022/12/02 07:27:19;;;;;;;;;;;4.80;99.90;;;;;;5044715;28;19913;-57
2022/12/02 07:29:44;;;;;;;;;;;4.70;99.90;;;;;;5040179;28;19940;-53
2022/12/02 07:32:10;;;;;;;;;;;4.60;99.90;;;;;;5023364;28;19912;-55
2022/12/02 07:34:35;;;;;;;;;;;4.60;99.90;;;;;;5039484;28;19913;-53
2022/12/02 07:37:01;;;;;;;;;;;4.60;99.90;;;;;;5040333;28;20434;-56
2022/12/02 07:39:26;;;;;;;;;;;4.60;99.90;;;;;;5048755;28;19977;-57
2022/12/02 07:41:52;;;;;;;;;;;4.60;99.90;;;;;;5044099;28;19913;-53
2022/12/02 07:44:17;;;;;;;;;;;4.60;99.90;;;;;;5044817;28;19984;-55
2022/12/02 07:46:42;;;;;;;;;;;4.60;99.90;;;;;;5043732;28;20260;-58
2022/12/02 07:49:08;;;;;;;;;;;4.60;99.90;;;;;;5044658;28;20014;-54
2022/12/02 07:51:33;;;;;;;;;;;4.40;99.90;;;;;;5038397;28;19952;-52
2022/12/02 07:53:59;;;;;;;;;;;4.40;99.90;;;;;;5040153;28;19913;-53
2022/12/02 07:56:24;;;;;;;;;;;4.30;99.90;;;;;;5038907;28;20340;-57
2022/12/02 07:58:50;;;;;;;;;;;4.40;99.90;;;;;;5041521;28;19920;-56
2022/12/02 08:01:15;;;;;;;;;;;4.40;99.90;;;;;;5041436;28;20397;-57
2022/12/02 08:03:41;;;;;;;;;;;4.40;99.90;;;;;;5043802;28;20856;-55
2022/12/02 08:06:07;;;;;;;;;;;4.40;99.90;;;;;;5040715;28;20323;-56
2022/12/02 08:08:32;;;;;;;;;;;4.30;99.90;;;;;;5037661;28;19987;-58
2022/12/02 08:10:58;;;;;;;;;;;4.20;99.90;;;;;;5043476;28;19913;-55
2022/12/02 08:13:23;;;;;;;;;;;4.20;99.90;;;;;;5046495;28;19971;-53
2022/12/02 08:15:48;;;;;;;;;;;4.20;99.90;;;;;;5041075;28;19917;-56
2022/12/02 08:18:14;;;;;;;;;;;4.10;99.90;;;;;;5042382;28;19928;-56
2022/12/02 08:20:39;;;;;;;;;;;4.20;99.90;;;;;;5034893;28;20601;-55
2022/12/02 08:23:06;;;;;;;;;;;4.10;99.90;;;;;;5046796;28;19913;-58
2022/12/02 08:25:31;;;;;;;;;;;4.10;99.90;;;;;;5046248;28;19920;-56
2022/12/02 08:27:57;;;;;;;;;;;4.10;99.90;;;;;;5041008;28;19921;-57
2022/12/02 08:30:22;;;;;;;;;;;4.10;99.90;;;;;;5048440;28;19983;-54
2022/12/02 08:32:48;;;;;;;;;;;4.10;99.90;;;;;;5040539;28;20054;-53
2022/12/02 08:35:13;;;;;;;;;;;4.10;99.90;;;;;;5039656;28;20329;-56
2022/12/02 08:37:39;;;;;;;;;;;4.10;99.90;;;;;;5049158;28;19920;-57
2022/12/02 08:40:04;;;;;;;;;;;4.10;99.90;;;;;;5039994;28;20299;-57
2022/12/02 08:42:30;;;;;;;;;;;4.20;99.90;;;;;;5038056;28;19921;-54
2022/12/02 08:44:55;;;;;;;;;;;4.20;99.90;;;;;;5044399;28;19928;-54
2022/12/02 08:47:21;;;;;;;;;;;4.30;99.90;;;;;;5041121;28;19924;-54
2022/12/02 08:49:46;;;;;;;;;;;4.20;99.90;;;;;;5039886;28;19913;-56
2022/12/02 08:52:12;;;;;;;;;;;4.20;99.90;;;;;;5046385;28;19917;-56
2022/12/02 08:54:39;;;;;;;;;;;4.20;99.90;;;;;;5045387;28;19917;-58
2022/12/02 08:57:05;;;;;;;;;;;4.20;99.90;;;;;;5042420;28;19920;-58
2022/12/02 08:59:30;;;;;;;;;;;4.20;99.90;;;;;;5038792;28;19913;-59
2022/12/02 09:01:56;;;;;;;;;;;4.20;99.90;;;;;;5038335;28;20809;-55
2022/12/02 09:04:21;;;;;;;;;;;4.20;99.90;;;;;;5040819;28;20275;-57
2022/12/02 09:06:47;;;;;;;;;;;4.20;99.90;;;;;;5045927;28;19943;-57
2022/12/02 09:09:13;;;;;;;;;;;4.20;99.90;;;;;;5045939;28;19959;-58
2022/12/02 09:11:38;;;;;;;;;;;4.20;99.90;;;;;;5040073;28;19913;-55
2022/12/02 09:14:04;;;;;;;;;;;4.30;99.90;;;;;;5044318;28;19917;-57
2022/12/02 09:16:29;;;;;;;;;;;4.30;99.90;;;;;;5047055;28;19955;-57
2022/12/02 09:18:55;;;;;;;;;;;4.40;99.90;;;;;;5041470;28;19913;-56
2022/12/02 09:21:21;;;;;;;;;;;4.40;99.90;;;;;;5043272;28;19928;-57
2022/12/02 09:23:46;;;;;;;;;;;4.50;99.90;;;;;;5044957;28;19957;-52
2022/12/02 09:26:12;;;;;;;;;;;4.50;99.90;;;;;;5042825;28;19971;-55
2022/12/02 09:28:37;;;;;;;;;;;4.50;99.90;;;;;;5045640;28;19917;-57
2022/12/02 09:31:02;;;;;;;;;;;4.50;99.90;;;;;;5043172;28;19940;-54
2022/12/02 09:33:28;;;;;;;;;;;4.50;99.90;;;;;;5042727;28;19966;-57
2022/12/02 09:35:53;;;;;;;;;;;4.50;99.90;;;;;;5035922;28;20008;-56
2022/12/02 09:38:19;;;;;;;;;;;4.50;99.90;;;;;;5039569;28;19949;-57
2022/12/02 09:40:44;;;;;;;;;;;4.60;99.90;;;;;;5041941;28;19917;-57
2022/12/02 09:43:10;;;;;;;;;;;4.60;99.90;;;;;;5043605;28;20651;-54
2022/12/02 09:45:35;;;;;;;;;;;4.60;99.90;;;;;;5035753;28;20082;-54
2022/12/02 09:48:01;;;;;;;;;;;4.60;99.90;;;;;;5043088;28;19917;-55
2022/12/02 09:50:26;;;;;;;;;;;4.60;99.90;;;;;;5044904;28;19917;-57
2022/12/02 09:52:55;;;;;;;;;;;4.60;99.90;;;;;;5043483;28;19921;-56
2022/12/02 09:55:21;;;;;;;;;;;4.60;99.90;;;;;;5044233;28;19920;-56
2022/12/02 09:57:46;;;;;;;;;;;4.60;99.90;;;;;;5044079;28;20166;-56
2022/12/02 10:00:16;;;;;;;;;;;4.70;99.90;;;;;;5028546;28;20379;-57
2022/12/02 10:02:46;;;;;;;;;;;4.70;99.90;;;;;;5039403;28;19921;-58
2022/12/02 10:05:13;;;;;;;;;;;4.70;99.90;;;;;;5043290;28;20044;-57
2022/12/02 10:07:39;;;;;;;;;;;4.70;99.90;;;;;;5025425;28;19913;-56
2022/12/02 10:10:05;;;;;;;;;;;4.80;99.90;;;;;;5040927;28;19913;-55
2022/12/02 10:12:30;;;;;;;;;;;4.80;99.90;;;;;;5044040;28;19939;-58
2022/12/02 10:14:57;;;;;;;;;;;4.80;99.90;;;;;;5048677;28;19913;-55
2022/12/02 10:17:23;;;;;;;;;;;4.80;99.90;;;;;;5050944;28;19932;-58
2022/12/02 10:19:48;;;;;;;;;;;4.80;99.90;;;;;;5044908;28;20408;-59
2022/12/02 10:22:15;;;;;;;;;;;4.80;99.90;;;;;;5044728;28;19912;-55
2022/12/02 10:24:41;;;;;;;;;;;4.90;99.90;;;;;;5042433;28;19920;-53
2022/12/02 10:27:07;;;;;;;;;;;4.90;99.90;;;;;;5047940;28;20371;-55
2022/12/02 10:29:32;;;;;;;;;;;4.90;99.90;;;;;;5041356;28;19913;-57
2022/12/02 10:31:58;;;;;;;;;;;4.90;99.90;;;;;;5048057;28;20063;-57
2022/12/02 10:34:24;;;;;;;;;;;4.90;99.90;;;;;;5042070;28;20101;-55
2022/12/02 10:36:49;;;;;;;;;;;4.90;99.90;;;;;;5047836;28;19971;-56
2022/12/02 10:39:15;;;;;;;;;;;4.90;99.90;;;;;;5041786;28;19924;-57
2022/12/02 10:41:40;;;;;;;;;;;4.90;99.90;;;;;;5043631;28;19917;-56
2022/12/02 10:44:11;;;;;;;;;;;5.00;99.90;;;;;;5038737;28;19916;-57
2022/12/02 10:46:37;;;;;;;;;;;5.00;99.90;;;;;;5045389;28;19917;-52
2022/12/02 10:49:21;;;;;;;;;;;5.00;99.90;;;;;;5044453;28;19928;-53
2022/12/02 10:51:46;;;;;;;;;;;5.00;99.90;;;;;;5045448;28;19943;-56
2022/12/02 10:54:38;;;;;;;;;;;5.00;99.90;;;;;;5042857;28;19921;-59
2022/12/02 10:57:04;;;;;;;;;;;5.00;99.90;;;;;;5041159;28;20011;-56
2022/12/02 10:59:30;;;;;;;;;;;5.00;99.90;;;;;;5044135;28;19912;-56
2022/12/02 11:01:56;;;;;;;;;;;5.00;99.90;;;;;;5045148;28;19913;-54
2022/12/02 11:04:23;;;;;;;;;;;5.00;99.90;;;;;;5046720;28;20452;-57
2022/12/02 11:06:48;;;;;;;;;;;5.10;99.90;;;;;;5037197;28;19913;-55
2022/12/02 11:09:15;;;;;;;;;;;5.10;99.90;;;;;;5045905;28;20007;-55
2022/12/02 11:11:41;;;;;;;;;;;5.10;99.90;;;;;;5045649;28;19912;-59
2022/12/02 11:14:11;;;;;;;;;;;5.10;99.90;;;;;;5048135;28;19923;-57
2022/12/02 11:16:36;;;;;;;;;;;5.10;99.90;;;;;;5047403;28;19917;-56
2022/12/02 11:19:08;;;;;;;;;;;5.20;99.90;;;;;;5046227;28;19978;-57
2022/12/02 11:21:36;;;;;;;;;;;5.20;99.90;;;;;;5041442;28;19913;-57
2022/12/02 11:24:20;;;;;;;;;;;5.20;99.90;;;;;;5041923;28;19963;-58
2022/12/02 11:27:03;;;;;;;;;;;5.20;99.90;;;;;;5040487;28;20032;-55
2022/12/02 11:29:29;;;;;;;;;;;5.20;99.90;;;;;;5035570;28;19917;-56
2022/12/02 11:32:02;;;;;;;;;;;5.20;99.90;;;;;;5039344;28;19924;-55
2022/12/02 11:34:44;;;;;;;;;;;5.20;99.90;;;;;;5046446;28;20050;-56
2022/12/02 11:37:28;;;;;;;;;;;5.30;99.90;;;;;;5062405;22;20343;-60
2022/12/02 11:39:57;;;;;;;;;;;5.30;99.90;;;;;;5046051;28;19963;-59
2022/12/02 11:42:24;;;;;;;;;;;5.30;99.90;;;;;;5040433;28;20000;-60
2022/12/02 11:44:50;;;;;;;;;;;5.30;99.90;;;;;;5060608;28;20354;-62
2022/12/02 11:47:29;;;;;;;;;;;5.30;99.90;;;;;;5053394;28;19963;-60
2022/12/02 11:50:08;;;;;;;;;;;5.30;99.90;;;;;;5049349;28;20321;-59
2022/12/02 11:52:37;;;;;;;;;;;5.30;99.90;;;;;;5049721;28;19959;-59
2022/12/02 11:55:09;;;;;;;;;;;5.30;99.90;;;;;;5051835;28;19917;-61
2022/12/02 11:57:47;;;;;;;;;;;5.30;99.90;;;;;;5052018;28;20286;-60
2022/12/02 12:00:33;;;;;;;;;;;5.30;99.90;;;;;;5053657;28;20329;-60
2022/12/02 12:03:04;;;;;;;;;;;5.40;99.90;;;;;;5048194;28;19920;-60
2022/12/02 12:05:30;;;;;;;;;;;5.40;99.90;;;;;;5052065;28;20608;-59
2022/12/02 12:07:55;;;;;;;;;;;5.40;99.90;;;;;;5044791;28;19912;-60
2022/12/02 12:10:31;;;;;;;;;;;5.30;99.90;;;;;;5051390;28;19966;-59
2022/12/02 12:13:10;;;;;;;;;;;5.40;99.90;;;;;;5040062;28;19920;-59
2022/12/02 12:15:46;;;;;;;;;;;5.30;99.90;;;;;;5056276;28;20374;-60
2022/12/02 12:18:31;;;;;;;;;;;5.30;99.90;;;;;;5058047;28;20019;-60
2022/12/02 12:20:57;;;;;;;;;;;5.30;99.90;;;;;;5050900;28;19924;-57
2022/12/02 12:23:26;;;;;;;;;;;5.30;99.90;;;;;;5054755;28;19917;-58
2022/12/02 12:25:52;;;;;;;;;;;5.30;99.90;;;;;;5045842;28;19916;-58
2022/12/02 12:28:24;;;;;;;;;;;5.30;99.90;;;;;;5052788;28;19912;-59
2022/12/02 12:30:50;;;;;;;;;;;5.20;99.90;;;;;;5052941;28;19997;-59
2022/12/02 12:33:15;;;;;;;;;;;5.20;99.90;;;;;;5056871;28;19944;-58
2022/12/02 12:35:41;;;;;;;;;;;5.20;99.90;;;;;;5047860;28;20616;-60
2022/12/02 12:38:06;;;;;;;;;;;5.20;99.90;;;;;;5043223;28;19916;-59
2022/12/02 12:40:32;;;;;;;;;;;5.20;99.90;;;;;;5041884;28;19941;-59
2022/12/02 12:42:57;;;;;;;;;;;5.20;99.90;;;;;;5050675;28;20365;-60
2022/12/02 12:45:23;;;;;;;;;;;5.20;99.90;;;;;;5049271;28;19917;-60
2022/12/02 12:47:48;;;;;;;;;;;5.20;99.90;;;;;;5049200;28;19913;-59
2022/12/02 12:50:13;;;;;;;;;;;5.20;99.90;;;;;;5049064;28;19912;-61
2022/12/02 12:52:39;;;;;;;;;;;5.20;99.90;;;;;;5044506;28;19924;-60
2022/12/02 12:55:05;;;;;;;;;;;5.20;99.90;;;;;;5054740;28;19960;-60
2022/12/02 12:57:30;;;;;;;;;;;5.10;99.90;;;;;;5045061;28;20294;-60
2022/12/02 12:59:55;;;;;;;;;;;5.20;99.90;;;;;;5047597;28;19920;-60
2022/12/02 13:02:21;;;;;;;;;;;5.20;99.90;;;;;;5048185;28;19936;-59
2022/12/02 13:04:46;;;;;;;;;;;5.20;99.90;;;;;;5043988;28;20338;-59
2022/12/02 13:07:12;;;;;;;;;;;5.20;99.90;;;;;;5047543;28;19920;-59
2022/12/02 13:09:37;;;;;;;;;;;5.20;99.90;;;;;;5045606;28;20445;-60
2022/12/02 13:12:03;;;;;;;;;;;5.20;99.90;;;;;;5040937;28;19938;-60
2022/12/02 13:14:28;;;;;;;;;;;5.20;99.90;;;;;;5045192;28;20298;-61
2022/12/02 13:16:54;;;;;;;;;;;5.20;99.90;;;;;;5044397;28;20366;-60
2022/12/02 13:19:19;;;;;;;;;;;5.20;99.90;;;;;;5042599;28;19913;-60
2022/12/02 13:21:45;;;;;;;;;;;5.30;99.90;;;;;;5046949;28;19958;-59
2022/12/02 13:24:12;;;;;;;;;;;5.30;99.90;;;;;;5044001;28;20009;-60
2022/12/02 13:26:38;;;;;;;;;;;5.20;99.90;;;;;;5045879;28;19917;-60
2022/12/02 13:29:03;;;;;;;;;;;5.10;99.90;;;;;;5042434;28;19912;-59
2022/12/02 13:31:29;;;;;;;;;;;5.10;99.90;;;;;;5042503;28;20307;-60
2022/12/02 13:33:54;;;;;;;;;;;5.20;99.90;;;;;;5037497;28;20007;-61
2022/12/02 13:36:20;;;;;;;;;;;5.20;99.90;;;;;;5048218;28;19913;-60
2022/12/02 13:38:45;;;;;;;;;;;5.20;99.90;;;;;;5060824;28;19920;-60
2022/12/02 13:41:10;;;;;;;;;;;5.20;99.90;;;;;;5048492;28;20332;-60
2022/12/02 13:43:36;;;;;;;;;;;5.20;99.90;;;;;;5049095;28;19913;-59
2022/12/02 13:46:02;;;;;;;;;;;5.10;99.90;;;;;;5048207;28;19916;-60
2022/12/02 13:48:27;;;;;;;;;;;5.20;99.90;;;;;;5044862;28;19971;-60
2022/12/02 13:50:53;;;;;;;;;;;5.10;99.90;;;;;;5037081;28;19913;-59
2022/12/02 13:53:18;;;;;;;;;;;5.10;99.90;;;;;;5044611;28;20401;-59
2022/12/02 13:55:44;;;;;;;;;;;5.10;99.90;;;;;;5045329;28;20367;-59
2022/12/02 13:58:09;;;;;;;;;;;5.10;99.90;;;;;;5052546;28;19916;-59
2022/12/02 14:00:34;;;;;;;;;;;5.10;99.90;;;;;;5053971;28;19920;-57
2022/12/02 14:03:00;;;;;;;;;;;5.10;99.90;;;;;;5047361;28;19908;-60
2022/12/02 14:05:25;;;;;;;;;;;5.20;99.90;;;;;;5047249;28;20007;-59
2022/12/02 14:07:51;;;;;;;;;;;5.20;99.90;;;;;;5047769;28;20390;-59
2022/12/02 14:10:16;;;;;;;;;;;5.20;99.90;;;;;;5044749;28;20296;-60
2022/12/02 14:12:42;;;;;;;;;;;5.20;99.90;;;;;;5049321;28;20007;-59
2022/12/02 14:15:08;;;;;;;;;;;5.20;99.90;;;;;;5047833;28;19921;-59
2022/12/02 14:17:33;;;;;;;;;;;5.20;99.90;;;;;;5043218;28;19917;-60
2022/12/02 14:19:59;;;;;;;;;;;5.20;99.90;;;;;;5050755;28;19924;-60
2022/12/02 14:22:24;;;;;;;;;;;5.20;99.90;;;;;;5044968;28;19952;-59
2022/12/02 14:24:50;;;;;;;;;;;5.20;99.90;;;;;;5039861;28;19920;-60
2022/12/02 14:27:15;;;;;;;;;;;5.20;99.90;;;;;;5048419;28;20512;-58
2022/12/02 14:29:41;;;;;;;;;;;5.20;99.90;;;;;;5053960;28;19913;-59
2022/12/02 14:32:06;;;;;;;;;;;5.20;99.90;;;;;;5043334;28;20470;-59
2022/12/02 14:34:32;;;;;;;;;;;5.20;99.90;;;;;;5050828;28;19936;-59
2022/12/02 14:36:57;;;;;;;;;;;5.20;99.90;;;;;;5049220;28;20395;-60
2022/12/02 14:39:23;;;;;;;;;;;5.20;99.90;;;;;;5057912;28;19966;-58
2022/12/02 14:41:48;;;;;;;;;;;5.20;99.90;;;;;;5047337;28;19988;-59
2022/12/02 14:44:14;;;;;;;;;;;5.20;99.90;;;;;;5055154;28;20366;-58
2022/12/02 14:46:44;;;;;;;;;;;5.20;99.90;;;;;;5049625;28;20297;-59
2022/12/02 14:49:09;;;;;;;;;;;5.20;99.90;;;;;;5049067;28;19908;-58
2022/12/02 14:51:35;;;;;;;;;;;5.20;99.90;;;;;;5050731;28;19919;-61
2022/12/02 14:54:01;;;;;;;;;;;5.20;99.90;;;;;;5053104;28;19963;-60
2022/12/02 14:56:27;;;;;;;;;;;5.20;99.90;;;;;;5043819;28;20382;-59
2022/12/02 14:58:52;;;;;;;;;;;5.20;99.90;;;;;;5064351;28;19935;-59
2022/12/02 15:01:18;;;;;;;;;;;5.10;99.90;;;;;;5064022;28;19916;-59
2022/12/02 15:03:43;;;;;;;;;;;5.10;99.90;;;;;;5056803;28;19912;-60
2022/12/02 15:06:09;;;;;;;;;;;5.20;99.90;;;;;;5045801;28;20082;-59
2022/12/02 15:08:34;;;;;;;;;;;5.20;99.90;;;;;;5052788;28;20401;-59
2022/12/02 15:11:00;;;;;;;;;;;5.10;99.90;;;;;;5051165;28;20379;-61
2022/12/02 15:13:25;;;;;;;;;;;5.10;99.90;;;;;;5050668;28;19999;-59